Time;durP1;ratioP1;P1;durP2;ratioP2;P2;SDS_P1;SDS_P2;PMS_P1;PMS_P2;Temp;Humidity;BMP_temperature;BMP_pressure;BME280_temperature;BME280_humidity;BME280_pressure;Samples;Min_cycle;Max_cycle;Signal;HPM_P1;HPM_P2
2022/04/08 09:45:50;;;;;;;2.37;2.17;;;23.00;51.60;;;;;;6224319;23;20944;-84
2022/04/08 09:48:17;;;;;;;1.93;1.10;;;23.00;51.60;;;;;;6243754;23;20437;-83
2022/04/08 09:50:50;;;;;;;1.53;1.33;;;23.10;51.50;;;;;;6246606;23;20428;-84
2022/04/08 09:53:20;;;;;;;3.43;1.30;;;23.20;51.50;;;;;;6246634;23;20495;-87
2022/04/08 09:55:47;;;;;;;3.00;1.53;;;23.20;51.50;;;;;;6246724;23;20390;-88
2022/04/08 09:58:15;;;;;;;1.33;1.23;;;23.20;51.40;;;;;;6246203;23;20406;-83
2022/04/08 10:00:44;;;;;;;1.53;1.20;;;23.20;51.50;;;;;;6246261;23;20726;-83
2022/04/08 10:03:13;;;;;;;5.00;1.33;;;23.20;51.40;;;;;;6246620;23;20405;-82
2022/04/08 10:05:40;;;;;;;1.70;1.23;;;23.20;51.40;;;;;;6246490;23;20730;-83
2022/04/08 10:08:08;;;;;;;2.27;1.00;;;23.20;51.50;;;;;;6246050;23;20405;-83
2022/04/08 10:10:41;;;;;;;1.30;1.07;;;23.20;51.50;;;;;;6246505;23;20428;-82
2022/04/08 10:13:28;;;;;;;2.13;1.50;;;23.30;51.50;;;;;;6245939;23;20433;-83
2022/04/08 10:16:03;;;;;;;3.50;1.60;;;23.30;51.40;;;;;;6246311;23;20393;-83
2022/04/08 10:18:39;;;;;;;1.80;1.40;;;23.30;51.40;;;;;;6246555;23;20484;-83
2022/04/08 10:21:06;;;;;;;1.70;1.50;;;23.30;51.40;;;;;;6246393;23;20397;-82
2022/04/08 10:27:00;;;;;;;1.40;1.30;;;23.30;51.30;;;;;;6246128;23;20403;-82
2022/04/08 10:29:27;;;;;;;3.57;1.60;;;23.30;51.00;;;;;;6246689;23;20463;-84
2022/04/08 10:31:58;;;;;;;2.73;1.53;;;23.30;51.10;;;;;;6249030;23;20455;-81
2022/04/08 10:34:27;;;;;;;1.60;1.13;;;23.50;51.40;;;;;;6248198;23;20397;-80
2022/04/08 10:36:54;;;;;;;1.70;1.30;;;23.30;51.10;;;;;;6248032;23;20394;-82
2022/04/08 10:39:23;;;;;;;2.00;1.20;;;23.30;51.10;;;;;;6248142;23;20393;-84
2022/04/08 10:41:52;;;;;;;1.97;1.30;;;23.30;51.10;;;;;;6248132;23;20872;-85
2022/04/08 10:44:31;;;;;;;1.57;1.20;;;23.30;51.00;;;;;;6248096;23;20485;-85
2022/04/08 10:47:00;;;;;;;2.77;1.20;;;23.30;51.00;;;;;;6247893;23;20459;-84
2022/04/08 10:49:28;;;;;;;2.67;1.20;;;23.40;50.90;;;;;;6247928;23;20798;-84
2022/04/08 10:51:55;;;;;;;1.20;1.07;;;23.30;50.80;;;;;;6247934;23;20402;-84
2022/04/08 10:54:34;;;;;;;3.93;1.33;;;23.30;51.00;;;;;;6248014;23;20413;-84
2022/04/08 10:57:01;;;;;;;5.77;2.23;;;23.30;51.00;;;;;;6248156;23;20393;-84
2022/04/08 10:59:28;;;;;;;2.20;1.63;;;23.30;51.30;;;;;;6248123;23;20398;-84
2022/04/08 11:02:00;;;;;;;1.30;1.00;;;23.30;51.20;;;;;;6247995;23;20488;-87
2022/04/08 11:04:29;;;;;;;2.17;1.57;;;23.30;51.30;;;;;;6247905;23;20398;-82
2022/04/08 11:06:56;;;;;;;1.40;1.30;;;23.60;51.20;;;;;;6247514;23;20408;-85
2022/04/08 11:09:23;;;;;;;3.00;1.30;;;23.30;51.40;;;;;;6247490;23;20406;-83
2022/04/08 11:11:53;;;;;;;4.93;1.90;;;23.30;51.70;;;;;;6247598;23;20437;-82
2022/04/08 11:14:20;;;;;;;11.60;3.50;;;23.20;49.50;;;;;;6247826;23;20402;-81
2022/04/08 11:16:49;;;;;;;3.03;1.87;;;23.20;48.60;;;;;;6247642;23;20408;-82
2022/04/08 11:19:16;;;;;;;2.80;1.37;;;23.30;49.30;;;;;;6247354;23;20432;-83
2022/04/08 11:21:45;;;;;;;2.30;1.47;;;23.30;50.20;;;;;;6247683;23;20436;-82
2022/04/08 11:24:13;;;;;;;3.97;1.50;;;23.30;50.60;;;;;;6247729;23;20760;-80
2022/04/08 11:26:44;;;;;;;2.57;1.43;;;23.30;51.10;;;;;;6247611;23;20413;-81
2022/04/08 11:29:13;;;;;;;4.07;1.50;;;23.20;51.40;;;;;;6247565;23;20402;-82
2022/04/08 11:31:40;;;;;;;2.73;1.87;;;23.30;51.60;;;;;;6247550;23;20768;-82
2022/04/08 11:37:30;;;;;;;2.80;1.80;;;23.30;51.60;;;;;;6247317;23;20416;-89
2022/04/08 11:39:58;;;;;;;4.33;2.00;;;23.30;52.10;;;;;;6247082;23;20407;-87
2022/04/08 11:42:26;;;;;;;3.03;1.70;;;23.30;52.30;;;;;;6247511;23;20521;-89
2022/04/08 11:44:53;;;;;;;3.40;1.60;;;23.30;52.40;;;;;;6247017;23;20914;-82
2022/04/08 11:47:31;;;;;;;1.80;1.70;;;23.30;52.40;;;;;;6246848;23;20429;-82
2022/04/08 11:50:03;;;;;;;1.90;1.80;;;23.40;52.50;;;;;;6247356;23;20386;-82
2022/04/08 11:52:31;;;;;;;3.27;1.40;;;23.40;52.50;;;;;;6247438;23;20437;-92
2022/04/08 11:58:20;;;;;;;1.97;1.60;;;23.40;52.30;;;;;;6251112;23;20404;-94
2022/04/08 12:00:48;;;;;;;2.13;1.27;;;23.30;52.10;;;;;;6250060;23;20485;-96
2022/04/08 12:03:21;;;;;;;2.90;1.57;;;23.40;51.80;;;;;;6248154;23;20409;-93
2022/04/08 12:05:51;;;;;;;3.30;1.50;;;23.40;51.60;;;;;;6259750;23;20441;-93
2022/04/08 12:08:20;;;;;;;1.77;1.57;;;23.40;51.60;;;;;;6249195;23;20461;-90
2022/04/08 12:10:52;;;;;;;4.60;1.60;;;23.40;51.50;;;;;;6247841;23;20397;-91
2022/04/08 12:16:45;;;;;;;2.17;1.50;;;23.40;51.30;;;;;;6246971;23;20381;-89
2022/04/08 12:22:34;;;;;;;1.97;1.33;;;23.40;51.20;;;;;;6246970;23;20365;-90
2022/04/08 12:25:02;;;;;;;2.63;1.10;;;23.30;51.10;;;;;;6246817;23;20460;-90
2022/04/08 12:30:35;;;;;;;3.63;1.37;;;23.40;51.10;;;;;;6246880;23;20376;-88
2022/04/08 12:33:02;;;;;;;1.50;1.20;;;23.30;51.10;;;;;;6246543;23;20947;-87
2022/04/08 12:35:28;;;;;;;1.80;1.33;;;23.30;51.10;;;;;;6247093;23;20406;-88
2022/04/08 12:37:55;;;;;;;1.43;1.23;;;23.30;51.00;;;;;;6248113;23;20488;-92
2022/04/08 12:40:23;;;;;;;2.70;1.50;;;23.50;51.00;;;;;;6247467;23;20477;-92
2022/04/08 12:42:50;;;;;;;1.90;1.47;;;23.40;50.80;;;;;;6247997;23;20480;-93
2022/04/08 12:45:17;;;;;;;2.27;1.30;;;23.30;50.90;;;;;;6247115;23;20402;-91
2022/04/08 12:47:44;;;;;;;1.43;1.33;;;23.30;50.90;;;;;;6246871;23;20927;-92
2022/04/08 12:50:11;;;;;;;2.77;1.30;;;23.30;51.00;;;;;;6246849;23;20496;-89
2022/04/08 12:52:38;;;;;;;2.00;1.40;;;23.30;51.10;;;;;;6246678;23;20441;-90
2022/04/08 12:55:07;;;;;;;2.77;1.40;;;23.30;51.00;;;;;;6246927;23;20412;-91
2022/04/08 12:57:36;;;;;;;2.40;1.53;;;23.30;51.10;;;;;;6248142;23;20405;-91
2022/04/08 13:00:11;;;;;;;2.17;1.67;;;23.30;51.30;;;;;;6247843;23;20906;-89
2022/04/08 13:02:38;;;;;;;1.37;1.17;;;23.30;51.30;;;;;;6247672;23;20439;-94
2022/04/08 13:05:06;;;;;;;2.70;1.87;;;23.30;51.30;;;;;;6246819;23;20497;-90
2022/04/08 13:07:33;;;;;;;1.90;1.57;;;23.30;51.50;;;;;;6246968;23;20754;-93
2022/04/08 13:09:59;;;;;;;1.70;1.43;;;23.30;51.50;;;;;;6246712;23;20450;-92
2022/04/08 13:12:26;;;;;;;1.90;1.60;;;23.30;51.40;;;;;;6246357;23;20880;-86
2022/04/08 13:14:55;;;;;;;1.93;1.20;;;23.30;51.40;;;;;;6246319;23;20484;-92
2022/04/08 13:17:22;;;;;;;3.10;1.37;;;23.30;51.30;;;;;;6246735;23;20401;-85
2022/04/08 13:19:49;;;;;;;3.13;1.30;;;23.30;51.40;;;;;;6246799;23;20481;-94
2022/04/08 13:22:16;;;;;;;1.33;1.20;;;23.30;51.40;;;;;;6246922;23;20397;-88
2022/04/08 13:24:43;;;;;;;1.53;1.00;;;23.30;51.30;;;;;;6246713;23;20405;-90
2022/04/08 13:27:10;;;;;;;2.33;1.10;;;23.20;52.00;;;;;;6246721;23;20447;-87
2022/04/08 13:29:37;;;;;;;1.20;1.10;;;23.30;51.50;;;;;;6246652;23;20397;-91
2022/04/08 13:32:06;;;;;;;1.47;1.10;;;23.30;52.20;;;;;;6246603;23;20407;-87
2022/04/08 13:34:33;;;;;;;1.60;1.50;;;23.20;51.60;;;;;;6246699;23;20511;-90
2022/04/08 13:37:00;;;;;;;1.83;1.37;;;23.20;51.80;;;;;;6246376;23;20459;-91
2022/04/08 13:39:27;;;;;;;1.73;1.30;;;23.40;51.90;;;;;;6247051;23;20516;-88
2022/04/08 13:41:54;;;;;;;2.13;1.10;;;23.20;51.60;;;;;;6246585;23;20401;-81
2022/04/08 13:44:21;;;;;;;2.80;1.40;;;23.20;51.40;;;;;;6247538;23;20671;-81
2022/04/08 13:46:48;;;;;;;2.43;1.27;;;23.20;51.40;;;;;;6245875;23;21027;-83
2022/04/08 13:49:16;;;;;;;1.90;1.33;;;23.20;51.50;;;;;;6246441;23;20488;-83
2022/04/08 13:51:42;;;;;;;2.03;1.40;;;23.30;51.40;;;;;;6246510;23;20406;-83
2022/04/08 13:54:10;;;;;;;2.60;1.40;;;23.20;51.40;;;;;;6246065;23;20445;-83
2022/04/08 13:56:37;;;;;;;1.10;1.00;;;23.20;51.60;;;;;;6246243;23;20414;-82
2022/04/08 14:02:26;;;;;;;2.10;1.33;;;23.30;51.60;;;;;;6246206;23;20360;-83
2022/04/08 14:04:55;;;;;;;1.90;1.30;;;23.20;51.90;;;;;;6247014;23;20405;-84
2022/04/08 14:07:22;;;;;;;1.70;1.13;;;23.20;51.50;;;;;;6248028;23;20900;-86
2022/04/08 14:09:49;;;;;;;2.20;1.23;;;23.20;51.40;;;;;;6248400;23;20476;-84
2022/04/08 14:12:18;;;;;;;1.47;1.37;;;23.20;51.30;;;;;;6248386;23;20727;-86
2022/04/08 14:14:45;;;;;;;1.37;1.07;;;23.20;51.20;;;;;;6248191;23;20761;-87
2022/04/08 14:20:35;;;;;;;1.47;1.30;;;23.30;51.20;;;;;;6248088;23;20403;-86
2022/04/08 14:26:24;;;;;;;1.20;0.93;;;23.20;51.30;;;;;;6247896;23;20496;-82
2022/04/08 14:28:51;;;;;;;1.30;1.20;;;23.10;50.90;;;;;;6248025;23;20401;-80
2022/04/08 14:31:18;;;;;;;1.60;1.10;;;23.20;50.70;;;;;;6248016;23;20404;-79
2022/04/08 14:33:45;;;;;;;1.50;1.03;;;23.20;50.80;;;;;;6247832;23;20456;-81
2022/04/08 14:36:13;;;;;;;1.30;1.00;;;23.20;50.50;;;;;;6248014;23;20512;-80
2022/04/08 14:38:40;;;;;;;1.30;1.00;;;23.20;50.30;;;;;;6248100;23;20719;-80
2022/04/08 14:41:08;;;;;;;1.77;0.90;;;23.20;50.20;;;;;;6247801;23;20737;-79
2022/04/08 14:43:35;;;;;;;1.60;1.07;;;23.20;50.30;;;;;;6247782;23;20772;-79
2022/04/08 14:46:03;;;;;;;1.20;1.00;;;23.30;50.30;;;;;;6247574;23;20410;-79
2022/04/08 14:48:29;;;;;;;1.47;1.07;;;23.20;49.90;;;;;;6247946;23;20492;-80
2022/04/08 14:50:56;;;;;;;1.60;1.00;;;23.20;49.90;;;;;;6247967;23;20405;-82
2022/04/08 14:53:25;;;;;;;1.27;0.80;;;23.20;50.00;;;;;;6247561;23;20532;-80
2022/04/08 14:55:51;;;;;;;1.20;1.00;;;23.30;50.10;;;;;;6247951;23;20405;-80
2022/04/08 14:58:19;;;;;;;1.53;1.10;;;23.30;50.00;;;;;;6247793;23;20489;-79
2022/04/08 15:00:46;;;;;;;2.07;1.20;;;23.30;49.90;;;;;;6247785;23;20412;-80
2022/04/08 15:03:13;;;;;;;1.80;1.30;;;23.20;49.80;;;;;;6248205;23;20401;-83
2022/04/08 15:05:40;;;;;;;2.43;0.90;;;23.20;49.30;;;;;;6247721;23;20896;-86
2022/04/08 15:08:08;;;;;;;3.20;1.00;;;23.10;49.80;;;;;;6248813;23;20725;-87
2022/04/08 15:10:36;;;;;;;2.07;1.10;;;23.10;50.20;;;;;;6249095;23;20405;-87
2022/04/08 15:13:03;;;;;;;1.40;1.10;;;23.10;50.20;;;;;;6249095;23;20403;-87
2022/04/08 15:15:29;;;;;;;1.20;1.00;;;23.10;50.40;;;;;;6248042;23;20884;-87
2022/04/08 15:17:56;;;;;;;1.00;0.90;;;23.20;50.70;;;;;;6248671;23;20489;-87
2022/04/08 15:20:23;;;;;;;4.30;0.90;;;23.10;50.80;;;;;;6248134;23;20406;-87
2022/04/08 15:22:50;;;;;;;2.70;0.93;;;23.10;50.70;;;;;;6247841;23;20480;-87
2022/04/08 15:25:17;;;;;;;1.30;1.00;;;23.10;50.90;;;;;;6248263;23;20467;-87
2022/04/08 15:27:45;;;;;;;1.47;1.03;;;23.10;50.90;;;;;;6248334;23;20405;-87
2022/04/08 15:30:12;;;;;;;1.30;1.00;;;23.10;50.90;;;;;;6248901;23;20398;-87
2022/04/08 15:32:41;;;;;;;2.07;1.03;;;23.10;50.50;;;;;;6248093;23;20417;-87
2022/04/08 15:35:08;;;;;;;1.10;0.90;;;23.10;50.80;;;;;;6247160;23;20528;-87
2022/04/08 15:37:35;;;;;;;1.57;1.03;;;23.10;50.80;;;;;;6249001;23;20489;-85
2022/04/08 15:40:04;;;;;;;1.03;0.80;;;23.20;51.30;;;;;;6247855;23;20416;-88
2022/04/08 15:42:31;;;;;;;2.10;1.20;;;23.10;50.90;;;;;;6248296;23;20480;-87
2022/04/08 15:44:59;;;;;;;1.70;1.03;;;23.10;50.50;;;;;;6248487;23;20456;-86
2022/04/08 15:47:28;;;;;;;1.60;1.00;;;23.10;50.50;;;;;;6255464;22;20480;-87
2022/04/08 15:49:54;;;;;;;1.90;1.10;;;23.10;50.60;;;;;;6275236;22;20417;-88
2022/04/08 15:52:21;;;;;;;1.50;0.90;;;23.00;50.60;;;;;;6274787;22;20401;-87
2022/04/08 15:54:48;;;;;;;1.77;1.10;;;23.00;50.80;;;;;;6271500;22;20477;-84
2022/04/08 15:57:15;;;;;;;1.30;0.97;;;23.00;51.00;;;;;;6250389;23;20402;-83
2022/04/08 15:59:41;;;;;;;5.30;1.20;;;23.00;50.80;;;;;;6249579;23;20401;-84
2022/04/08 16:02:10;;;;;;;4.93;1.23;;;23.00;50.70;;;;;;6247997;23;20405;-84
2022/04/08 16:04:37;;;;;;;1.37;1.00;;;23.00;50.70;;;;;;6247498;23;20960;-83
2022/04/08 16:07:04;;;;;;;1.40;1.00;;;23.20;51.10;;;;;;6247739;23;20801;-85
2022/04/08 16:09:31;;;;;;;2.23;1.00;;;23.00;50.80;;;;;;6248221;23;20401;-84
2022/04/08 16:11:58;;;;;;;2.60;1.00;;;23.00;51.00;;;;;;6247174;23;20402;-84
2022/04/08 16:14:25;;;;;;;1.10;0.90;;;23.00;51.10;;;;;;6247057;23;20954;-84
2022/04/08 16:16:52;;;;;;;1.20;0.90;;;23.00;51.20;;;;;;6247016;23;20402;-84
2022/04/08 16:19:20;;;;;;;3.80;1.10;;;23.00;51.40;;;;;;6246988;23;20500;-84
2022/04/08 16:21:47;;;;;;;1.87;1.20;;;23.00;51.50;;;;;;6246745;23;20481;-84
2022/04/08 16:24:14;;;;;;;1.50;1.00;;;23.00;51.50;;;;;;6247224;23;20484;-85
2022/04/08 16:26:41;;;;;;;1.20;1.00;;;23.00;51.40;;;;;;6246756;23;20424;-84
2022/04/08 16:29:08;;;;;;;1.50;1.03;;;23.10;51.50;;;;;;6247414;23;20448;-84
2022/04/08 16:31:36;;;;;;;1.27;1.10;;;23.10;51.50;;;;;;6247277;23;20490;-84
2022/04/08 16:34:04;;;;;;;1.30;0.90;;;23.00;51.50;;;;;;6247205;23;20520;-84
2022/04/08 16:36:33;;;;;;;1.40;1.03;;;23.00;51.50;;;;;;6247373;23;20401;-84
2022/04/08 16:39:00;;;;;;;1.10;0.73;;;23.10;51.60;;;;;;6247260;23;20405;-85
2022/04/08 16:41:27;;;;;;;1.30;0.83;;;23.10;51.70;;;;;;6247409;23;20492;-85
2022/04/08 16:43:57;;;;;;;1.10;0.80;;;23.00;51.60;;;;;;6247188;23;20721;-84
2022/04/08 16:46:24;;;;;;;1.07;0.93;;;23.10;51.60;;;;;;6246960;23;20397;-85
2022/04/08 16:48:50;;;;;;;1.37;0.90;;;23.10;51.70;;;;;;6247106;23;20386;-84
2022/04/08 16:51:17;;;;;;;1.77;0.83;;;23.10;51.70;;;;;;6247025;23;20722;-84
2022/04/08 16:53:45;;;;;;;1.97;0.93;;;23.10;51.70;;;;;;6247258;23;20757;-84
2022/04/08 16:56:12;;;;;;;1.37;1.23;;;23.00;51.70;;;;;;6246508;23;20907;-84
2022/04/08 16:58:39;;;;;;;1.17;0.93;;;23.00;51.70;;;;;;6247176;23;20405;-84
2022/04/08 17:01:06;;;;;;;1.27;1.00;;;23.10;51.80;;;;;;6247156;23;20405;-84
2022/04/08 17:03:35;;;;;;;1.20;1.00;;;23.10;51.80;;;;;;6246991;23;20409;-84
2022/04/08 17:06:01;;;;;;;1.13;1.03;;;23.00;51.70;;;;;;6247990;23;20429;-83
2022/04/08 17:08:28;;;;;;;1.80;0.93;;;23.00;51.70;;;;;;6246990;23;20404;-84
2022/04/08 17:10:57;;;;;;;3.77;1.27;;;23.20;51.90;;;;;;6247105;23;20404;-84
2022/04/08 17:13:24;;;;;;;2.47;1.20;;;23.00;51.80;;;;;;6246989;23;20938;-84
2022/04/08 17:15:50;;;;;;;1.30;1.00;;;23.20;51.90;;;;;;6246461;23;20495;-85
2022/04/08 17:18:17;;;;;;;1.17;0.97;;;23.00;51.70;;;;;;6247005;23;20488;-85
2022/04/08 17:20:44;;;;;;;1.60;1.10;;;23.00;51.60;;;;;;6247887;23;20401;-84
2022/04/08 17:23:11;;;;;;;1.30;1.10;;;23.00;51.70;;;;;;6246818;23;20492;-85
2022/04/08 17:25:38;;;;;;;1.17;1.07;;;23.00;51.60;;;;;;6246694;23;20492;-84
2022/04/08 17:28:08;;;;;;;1.50;0.90;;;23.00;51.70;;;;;;6247015;23;20508;-85
2022/04/08 17:30:34;;;;;;;1.10;0.80;;;23.00;51.60;;;;;;6246978;23;20718;-84
2022/04/08 17:33:03;;;;;;;1.10;0.90;;;23.00;51.60;;;;;;6246881;23;20781;-85
2022/04/08 17:35:31;;;;;;;1.20;1.00;;;23.00;51.70;;;;;;6246783;23;20441;-85
2022/04/08 17:37:58;;;;;;;1.37;0.80;;;23.00;51.60;;;;;;6247760;23;20444;-85
2022/04/08 17:40:27;;;;;;;1.30;0.90;;;23.10;52.40;;;;;;6249632;23;20401;-84
2022/04/08 17:42:55;;;;;;;1.13;0.80;;;23.00;51.70;;;;;;6248950;23;20480;-85
2022/04/08 17:45:24;;;;;;;1.20;0.83;;;23.00;51.70;;;;;;6249061;23;20402;-85
2022/04/08 17:47:50;;;;;;;2.13;0.90;;;23.00;51.70;;;;;;6248519;23;20424;-85
2022/04/08 17:50:18;;;;;;;1.10;1.00;;;23.00;51.80;;;;;;6248394;23;20405;-84
2022/04/08 17:52:45;;;;;;;1.93;1.00;;;23.00;51.80;;;;;;6248785;23;20488;-84
2022/04/08 17:55:12;;;;;;;1.10;0.90;;;22.90;51.70;;;;;;6248158;23;20445;-85
2022/04/08 17:57:39;;;;;;;1.00;0.80;;;23.00;51.70;;;;;;6249465;23;20725;-85
2022/04/08 18:00:07;;;;;;;1.40;1.10;;;22.90;51.70;;;;;;6249182;23;20898;-85
2022/04/08 18:02:35;;;;;;;1.20;1.10;;;23.00;51.80;;;;;;6249042;23;20405;-85
2022/04/08 18:05:03;;;;;;;1.20;0.93;;;22.90;51.80;;;;;;6248873;23;20401;-85
2022/04/08 18:07:30;;;;;;;1.50;1.13;;;22.90;51.80;;;;;;6248769;23;20406;-85
2022/04/08 18:09:56;;;;;;;1.37;0.90;;;22.90;51.80;;;;;;6248715;23;20402;-85
2022/04/08 18:12:23;;;;;;;1.10;0.90;;;22.90;51.80;;;;;;6248625;23;20409;-84
2022/04/08 18:14:50;;;;;;;1.40;1.10;;;22.90;51.80;;;;;;6248121;23;20528;-85
2022/04/08 18:17:18;;;;;;;1.30;1.20;;;22.90;51.90;;;;;;6248347;23;20406;-85
2022/04/08 18:19:46;;;;;;;1.83;0.90;;;22.90;51.90;;;;;;6248949;23;20484;-84
2022/04/08 18:22:14;;;;;;;1.30;0.80;;;22.90;51.90;;;;;;6248774;23;20769;-85
2022/04/08 18:24:41;;;;;;;1.00;0.80;;;22.80;51.80;;;;;;6249157;23;20413;-85
2022/04/08 18:27:08;;;;;;;1.03;0.70;;;22.90;51.90;;;;;;6249253;23;20800;-85
2022/04/08 18:29:36;;;;;;;1.30;0.93;;;22.80;51.90;;;;;;6248782;23;20489;-84
2022/04/08 18:32:03;;;;;;;1.00;0.80;;;22.80;51.90;;;;;;6248599;23;20413;-85
2022/04/08 18:34:41;;;;;;;1.83;1.27;;;22.80;51.90;;;;;;6248173;23;20433;-84
2022/04/08 18:37:09;;;;;;;2.03;0.80;;;22.90;52.00;;;;;;6247849;23;20416;-85
2022/04/08 18:39:36;;;;;;;1.10;0.90;;;22.80;51.80;;;;;;6247896;23;20888;-84
2022/04/08 18:42:07;;;;;;;1.00;0.70;;;22.80;51.90;;;;;;6248071;23;20401;-84
2022/04/08 18:44:35;;;;;;;1.60;1.00;;;22.80;51.90;;;;;;6248431;23;20722;-84
2022/04/08 18:47:02;;;;;;;1.10;0.97;;;23.00;52.00;;;;;;6247984;23;20435;-84
2022/04/08 18:49:29;;;;;;;2.20;1.00;;;22.80;51.90;;;;;;6247865;23;20764;-84
2022/04/08 18:51:55;;;;;;;1.97;0.93;;;22.80;52.00;;;;;;6248018;23;20401;-85
2022/04/08 18:54:24;;;;;;;1.10;0.90;;;22.80;51.90;;;;;;6247509;23;20939;-84
2022/04/08 18:56:51;;;;;;;1.87;0.80;;;22.80;51.90;;;;;;6248064;23;20413;-84
2022/04/08 18:59:18;;;;;;;1.10;0.83;;;22.80;52.00;;;;;;6247437;23;20741;-84
2022/04/08 19:01:45;;;;;;;1.17;0.80;;;22.80;51.90;;;;;;6247920;23;20432;-83
2022/04/08 19:04:12;;;;;;;1.93;0.80;;;22.80;52.00;;;;;;6247561;23;20402;-84
2022/04/08 19:06:39;;;;;;;1.27;0.80;;;22.80;52.00;;;;;;6248311;23;20408;-84
2022/04/08 19:09:06;;;;;;;1.10;0.80;;;22.70;51.90;;;;;;6247933;23;20729;-84
2022/04/08 19:11:35;;;;;;;0.97;0.70;;;22.80;52.00;;;;;;6247855;23;20732;-85
2022/04/08 19:14:02;;;;;;;1.10;0.80;;;22.70;51.90;;;;;;6247903;23;20410;-84
2022/04/08 19:16:29;;;;;;;1.23;0.97;;;22.70;52.00;;;;;;6247312;23;20536;-84
2022/04/08 19:18:56;;;;;;;1.67;0.90;;;22.70;51.90;;;;;;6248546;23;20447;-84
2022/04/08 19:21:23;;;;;;;1.03;0.80;;;22.70;51.90;;;;;;6247366;23;20406;-84
2022/04/08 19:23:49;;;;;;;1.17;0.90;;;22.70;52.00;;;;;;6247663;23;20484;-84
2022/04/08 19:26:16;;;;;;;1.53;0.90;;;22.70;51.90;;;;;;6247330;23;20408;-84
2022/04/08 19:28:44;;;;;;;1.57;0.90;;;22.70;51.90;;;;;;6247684;23;20404;-84
2022/04/08 19:31:11;;;;;;;2.27;1.00;;;22.70;51.90;;;;;;6247726;23;20404;-84
2022/04/08 19:33:38;;;;;;;1.77;1.00;;;22.70;52.00;;;;;;6247554;23;20397;-84
2022/04/08 19:36:05;;;;;;;2.80;0.90;;;22.70;51.90;;;;;;6247483;23;20447;-84
2022/04/08 19:38:32;;;;;;;0.90;0.70;;;22.70;52.00;;;;;;6248647;23;20428;-84
2022/04/08 19:41:03;;;;;;;1.00;0.80;;;22.80;52.00;;;;;;6247527;23;20402;-84
2022/04/08 19:43:30;;;;;;;0.90;0.80;;;22.70;52.00;;;;;;6248412;23;20681;-84
2022/04/08 19:45:58;;;;;;;1.00;0.80;;;22.70;51.90;;;;;;6247511;23;20406;-84
2022/04/08 19:48:25;;;;;;;1.27;1.00;;;22.70;51.90;;;;;;6247625;23;20520;-85
2022/04/08 19:50:52;;;;;;;1.07;0.90;;;22.70;52.00;;;;;;6247034;23;20408;-84
2022/04/08 19:53:19;;;;;;;1.67;0.90;;;22.70;52.00;;;;;;6247124;23;20401;-84
2022/04/08 19:55:46;;;;;;;1.57;1.00;;;22.70;52.00;;;;;;6247344;23;20445;-83
2022/04/08 19:58:13;;;;;;;1.60;0.80;;;22.70;52.00;;;;;;6247017;23;20488;-84
2022/04/08 20:00:39;;;;;;;1.20;0.87;;;22.70;52.00;;;;;;6247355;23;20796;-85
2022/04/08 20:03:07;;;;;;;1.07;0.80;;;22.60;51.90;;;;;;6246417;23;20484;-84
2022/04/08 20:05:34;;;;;;;1.00;0.90;;;22.70;52.00;;;;;;6247412;23;20405;-84
2022/04/08 20:08:01;;;;;;;1.00;0.80;;;22.60;51.90;;;;;;6247202;23;20491;-84
2022/04/08 20:10:28;;;;;;;2.37;1.10;;;22.80;52.00;;;;;;6246870;23;20401;-84
2022/04/08 20:12:55;;;;;;;1.63;1.00;;;22.60;52.00;;;;;;6247952;23;20402;-84
2022/04/08 20:15:22;;;;;;;1.53;0.90;;;22.60;51.90;;;;;;6247059;23;20449;-84
2022/04/08 20:17:49;;;;;;;2.40;1.10;;;22.60;52.00;;;;;;6247087;23;20480;-84
2022/04/08 20:20:17;;;;;;;1.07;0.90;;;22.60;52.00;;;;;;6246792;23;20412;-84
2022/04/08 20:22:44;;;;;;;1.40;0.90;;;22.60;52.00;;;;;;6247921;23;20436;-85
2022/04/08 20:25:11;;;;;;;1.07;0.80;;;22.60;52.00;;;;;;6247227;23;20433;-84
2022/04/08 20:27:37;;;;;;;1.80;1.17;;;22.80;52.10;;;;;;6247119;23;20428;-84
2022/04/08 20:30:06;;;;;;;1.30;0.80;;;22.60;52.00;;;;;;6250171;23;20402;-84
2022/04/08 20:32:32;;;;;;;1.50;1.20;;;22.60;52.00;;;;;;6249673;23;20401;-84
2022/04/08 20:34:59;;;;;;;0.90;0.70;;;22.60;52.00;;;;;;6250086;23;20502;-84
2022/04/08 20:37:28;;;;;;;1.27;1.00;;;22.60;52.00;;;;;;6247526;23;20727;-84
2022/04/08 20:39:55;;;;;;;1.20;0.80;;;22.60;52.00;;;;;;6247777;23;20480;-84
2022/04/08 20:42:22;;;;;;;1.20;0.90;;;22.60;52.00;;;;;;6247881;23;20405;-84
2022/04/08 20:44:49;;;;;;;1.70;0.70;;;22.80;52.20;;;;;;6273847;22;20409;-84
2022/04/08 20:47:16;;;;;;;1.00;0.80;;;22.50;52.00;;;;;;6275064;22;20417;-84
2022/04/08 20:49:43;;;;;;;1.80;1.10;;;22.60;52.00;;;;;;6275216;22;20400;-84
2022/04/08 20:52:10;;;;;;;1.77;1.10;;;22.60;52.00;;;;;;6256957;23;20401;-85
2022/04/08 20:54:38;;;;;;;1.50;0.93;;;22.60;52.00;;;;;;6249175;23;20404;-84
2022/04/08 20:57:05;;;;;;;1.40;0.80;;;22.60;52.00;;;;;;6247825;23;20449;-84
2022/04/08 20:59:33;;;;;;;1.13;0.90;;;22.50;51.90;;;;;;6247400;23;20703;-84
2022/04/08 21:02:00;;;;;;;1.10;0.83;;;22.60;52.00;;;;;;6247209;23;20437;-84
2022/04/08 21:04:27;;;;;;;1.97;1.30;;;22.50;52.00;;;;;;6248982;23;20404;-91
2022/04/08 21:06:54;;;;;;;5.17;1.97;;;22.50;52.00;;;;;;6247311;23;20409;-91
2022/04/08 21:09:20;;;;;;;2.73;1.50;;;22.50;49.80;;;;;;6247462;23;20408;-92
2022/04/08 21:11:49;;;;;;;3.33;1.63;;;22.40;50.70;;;;;;6247516;23;20772;-88
2022/04/08 21:14:15;;;;;;;3.17;1.03;;;22.40;51.30;;;;;;6246970;23;20398;-90
2022/04/08 21:16:42;;;;;;;1.43;1.10;;;22.40;51.70;;;;;;6247272;23;20752;-90
2022/04/08 21:19:09;;;;;;;1.20;0.90;;;22.40;52.10;;;;;;6247301;23;20402;-90
2022/04/08 21:21:36;;;;;;;1.40;1.17;;;22.40;52.10;;;;;;6247708;23;20406;-92
2022/04/08 21:24:03;;;;;;;1.20;0.90;;;22.30;51.90;;;;;;6246748;23;20444;-91
2022/04/08 21:26:30;;;;;;;1.30;0.80;;;22.40;52.10;;;;;;6246753;23;20510;-89
2022/04/08 21:28:58;;;;;;;1.93;1.00;;;22.40;52.10;;;;;;6247781;23;20443;-89
2022/04/08 21:31:25;;;;;;;2.27;1.20;;;22.50;52.20;;;;;;6247194;23;20792;-89
2022/04/08 21:33:52;;;;;;;1.80;1.00;;;22.40;52.00;;;;;;6247081;23;20401;-88
2022/04/08 21:36:20;;;;;;;2.10;1.00;;;22.40;52.00;;;;;;6247733;23;20483;-88
2022/04/08 21:38:47;;;;;;;1.33;1.00;;;22.40;52.00;;;;;;6247137;23;20412;-89
2022/04/08 21:41:14;;;;;;;1.67;0.90;;;22.40;52.00;;;;;;6246829;23;20425;-88
2022/04/08 21:43:42;;;;;;;1.57;0.70;;;22.50;52.10;;;;;;6246548;23;20884;-91
2022/04/08 21:46:11;;;;;;;1.80;1.00;;;22.40;52.00;;;;;;6247595;23;20401;-95
2022/04/08 21:48:38;;;;;;;1.47;0.80;;;22.50;52.20;;;;;;6246910;23;20512;-92
2022/04/08 21:51:05;;;;;;;1.50;1.00;;;22.60;52.30;;;;;;6247331;23;20408;-94
2022/04/08 21:53:32;;;;;;;6.10;1.43;;;22.50;52.10;;;;;;6248584;23;20721;-94
2022/04/08 21:55:59;;;;;;;1.23;0.90;;;22.50;52.00;;;;;;6247303;23;20446;-95
2022/04/08 21:58:26;;;;;;;1.20;0.80;;;22.40;52.00;;;;;;6247496;23;20493;-93
2022/04/08 22:00:55;;;;;;;1.37;1.00;;;22.40;52.00;;;;;;6247230;23;20409;-94
2022/04/08 22:06:45;;;;;;;1.10;0.90;;;22.50;51.90;;;;;;6247567;23;20369;-93
2022/04/08 22:09:12;;;;;;;1.00;0.80;;;22.40;52.00;;;;;;6247425;23;20404;-94
2022/04/08 22:11:39;;;;;;;1.30;0.80;;;22.40;51.90;;;;;;6246768;23;20401;-93
2022/04/08 22:14:06;;;;;;;1.67;0.90;;;22.40;51.90;;;;;;6247365;23;20397;-95
2022/04/08 22:16:32;;;;;;;2.60;0.80;;;22.40;51.90;;;;;;6247534;23;20447;-94
2022/04/08 22:18:59;;;;;;;1.90;1.23;;;22.40;51.90;;;;;;6247456;23;20410;-93
2022/04/08 22:21:26;;;;;;;1.33;1.10;;;22.40;51.80;;;;;;6247436;23;20423;-94
2022/04/08 22:23:54;;;;;;;1.50;0.80;;;22.40;51.80;;;;;;6247289;23;20403;-94
2022/04/08 22:26:21;;;;;;;1.10;0.97;;;22.40;51.80;;;;;;6248496;23;20408;-94
2022/04/08 22:28:48;;;;;;;0.90;0.70;;;22.40;51.80;;;;;;6249246;23;20397;-94
2022/04/08 22:31:15;;;;;;;1.30;1.00;;;22.40;51.80;;;;;;6249351;23;20405;-94
2022/04/08 22:33:42;;;;;;;1.10;0.90;;;22.40;51.80;;;;;;6248825;23;20902;-94
2022/04/08 22:36:08;;;;;;;1.00;0.73;;;22.40;51.80;;;;;;6251370;23;20445;-90
2022/04/08 22:38:35;;;;;;;1.37;1.00;;;22.40;51.70;;;;;;6272041;23;20464;-94
2022/04/08 22:41:03;;;;;;;1.20;0.90;;;22.60;51.90;;;;;;6263948;23;20420;-95
2022/04/08 22:46:53;;;;;;;1.20;0.87;;;22.40;51.70;;;;;;6249403;22;20362;-94
2022/04/08 22:49:20;;;;;;;1.13;0.90;;;22.40;51.80;;;;;;6250013;23;20390;-95
2022/04/08 22:51:46;;;;;;;1.17;0.90;;;22.30;51.70;;;;;;6249334;23;20429;-94
2022/04/08 22:54:13;;;;;;;1.73;0.83;;;22.40;51.80;;;;;;6222910;23;20898;-94
2022/04/08 22:56:41;;;;;;;2.17;0.80;;;22.30;51.70;;;;;;6249147;23;20445;-94
2022/04/08 22:59:08;;;;;;;1.10;0.90;;;22.40;51.80;;;;;;6249328;23;20406;-95
2022/04/08 23:01:35;;;;;;;1.30;0.80;;;22.40;51.80;;;;;;6249905;23;20780;-95
2022/04/08 23:04:04;;;;;;;1.10;0.77;;;22.40;51.80;;;;;;6249597;23;20405;-94
2022/04/08 23:06:31;;;;;;;1.63;0.80;;;22.30;51.70;;;;;;6249683;23;20444;-95
2022/04/08 23:08:58;;;;;;;2.27;0.80;;;22.30;51.70;;;;;;6249413;23;20456;-95
2022/04/08 23:11:25;;;;;;;1.40;0.93;;;22.30;51.70;;;;;;6248890;23;20406;-94